createdAt,value
2023-03-03T00:01:16.652Z,10.15
2023-03-03T00:03:44.053Z,10.10
2023-03-03T00:06:13.532Z,11.13
2023-03-03T00:08:41.501Z,8.93
2023-03-03T00:11:08.911Z,10.45
2023-03-03T00:13:53.144Z,11.27
2023-03-03T00:16:40.814Z,10.27
2023-03-03T00:19:19.480Z,10.30
2023-03-03T00:22:06.523Z,8.75
2023-03-03T00:24:38.136Z,9.65
2023-03-03T00:27:28.014Z,10.20
2023-03-03T00:29:59.910Z,10.63
2023-03-03T00:32:46.992Z,9.43
2023-03-03T00:35:30.633Z,10.18
2023-03-03T00:38:00.425Z,9.55
2023-03-03T00:40:35.475Z,9.90
2023-03-03T00:43:12.608Z,9.73
2023-03-03T00:45:45.969Z,10.25
2023-03-03T00:48:27.313Z,9.65
2023-03-03T00:51:00.237Z,10.57
2023-03-03T00:53:29.874Z,10.95
2023-03-03T00:55:57.912Z,10.70
2023-03-03T00:58:26.092Z,10.23
2023-03-03T01:00:54.946Z,10.68
2023-03-03T01:03:28.350Z,9.40
2023-03-03T01:05:55.411Z,10.38
2023-03-03T01:08:23.138Z,9.27
2023-03-03T01:10:53.822Z,8.93
2023-03-03T01:13:25.053Z,8.75
2023-03-03T01:15:52.862Z,9.68
2023-03-03T01:18:20.877Z,8.85
2023-03-03T01:20:48.387Z,8.88
2023-03-03T01:23:15.540Z,8.77
2023-03-03T01:25:42.708Z,9.63
2023-03-03T01:28:10.521Z,8.68
2023-03-03T01:30:38.145Z,8.23
2023-03-03T01:33:05.481Z,9.75
2023-03-03T01:35:32.461Z,9.77
2023-03-03T01:38:00.050Z,10.13
2023-03-03T01:40:29.688Z,9.13
2023-03-03T01:42:59.122Z,8.65
2023-03-03T01:45:27.928Z,9.13
2023-03-03T01:48:09.807Z,10.43
2023-03-03T01:50:55.404Z,9.23
2023-03-03T01:53:36.510Z,8.90
2023-03-03T01:56:08.021Z,8.70
2023-03-03T01:58:48.861Z,9.27
2023-03-03T02:01:20.528Z,10.60
2023-03-03T02:03:48.140Z,8.73
2023-03-03T02:06:19.501Z,10.15
2023-03-03T02:09:12.657Z,10.75
2023-03-03T02:11:43.278Z,9.57
2023-03-03T02:14:13.819Z,9.45
2023-03-03T02:16:43.986Z,9.13
2023-03-03T02:19:24.298Z,8.65
2023-03-03T02:21:52.949Z,9.95
2023-03-03T02:24:30.172Z,9.32
2023-03-03T02:26:58.153Z,9.98
2023-03-03T02:29:25.877Z,9.43
2023-03-03T02:31:56.440Z,9.13
2023-03-03T02:34:23.937Z,9.85
2023-03-03T02:36:52.294Z,10.18
2023-03-03T02:39:26.792Z,9.30
2023-03-03T02:42:12.682Z,8.50
2023-03-03T02:44:44.861Z,8.73
2023-03-03T02:47:12.203Z,7.85
2023-03-03T02:49:40.074Z,10.40
2023-03-03T02:52:10.323Z,8.57
2023-03-03T02:54:40.164Z,9.02
2023-03-03T02:57:09.029Z,9.02
2023-03-03T02:59:36.476Z,8.75
2023-03-03T03:02:14.480Z,8.75
2023-03-03T03:04:45.171Z,9.15
2023-03-03T03:07:16.785Z,7.85
2023-03-03T03:09:44.898Z,7.65
2023-03-03T03:12:12.611Z,8.55
2023-03-03T03:14:40.905Z,8.60
2023-03-03T03:17:09.574Z,8.70
2023-03-03T03:19:37.566Z,7.80
2023-03-03T03:22:05.466Z,8.65
2023-03-03T03:24:35.585Z,8.55
2023-03-03T03:27:06.440Z,8.00
2023-03-03T03:29:33.976Z,8.02
2023-03-03T03:32:01.395Z,8.18
2023-03-03T03:34:29.903Z,8.38
2023-03-03T03:36:58.253Z,7.13
2023-03-03T03:39:27.433Z,7.72
2023-03-03T03:41:57.685Z,7.63
2023-03-03T03:44:25.229Z,8.35
2023-03-03T03:46:57.942Z,7.97
2023-03-03T03:49:25.675Z,8.50
2023-03-03T03:51:56.543Z,6.68
2023-03-03T03:54:26.869Z,7.82
2023-03-03T03:56:54.822Z,7.25
2023-03-03T03:59:23.092Z,7.45
2023-03-03T04:01:53.599Z,9.07
2023-03-03T04:04:24.110Z,8.15
2023-03-03T04:06:51.638Z,7.72
2023-03-03T04:09:19.368Z,7.28
2023-03-03T04:11:49.418Z,8.02
2023-03-03T04:14:17.660Z,7.90
2023-03-03T04:16:45.539Z,7.90
2023-03-03T04:19:12.986Z,7.25
2023-03-03T04:21:43.169Z,8.07
2023-03-03T04:24:10.817Z,6.97
2023-03-03T04:26:39.252Z,8.00
2023-03-03T04:29:07.140Z,7.47
2023-03-03T04:31:34.358Z,7.75
2023-03-03T04:34:07.475Z,8.50
2023-03-03T04:36:36.345Z,7.30
2023-03-03T04:39:04.172Z,8.68
2023-03-03T04:41:32.412Z,7.28
2023-03-03T04:43:59.740Z,7.38
2023-03-03T04:46:29.073Z,7.38
2023-03-03T04:48:57.186Z,6.93
2023-03-03T04:51:26.271Z,7.10
2023-03-03T04:53:53.555Z,6.93
2023-03-03T04:56:20.803Z,7.03
2023-03-03T04:58:49.014Z,7.18
2023-03-03T05:01:16.110Z,7.15
2023-03-03T05:03:43.339Z,7.53
2023-03-03T05:06:19.444Z,7.03
2023-03-03T05:08:47.620Z,7.90
2023-03-03T05:11:15.376Z,7.15
2023-03-03T05:13:44.904Z,7.38
2023-03-03T05:16:13.017Z,7.43
2023-03-03T05:18:49.880Z,7.18
2023-03-03T05:21:18.049Z,6.90
2023-03-03T05:23:45.844Z,7.00
2023-03-03T05:26:13.211Z,6.72
2023-03-03T05:28:40.771Z,7.60
2023-03-03T05:31:08.147Z,7.07
2023-03-03T05:33:35.784Z,8.48
2023-03-03T05:36:03.457Z,7.47
2023-03-03T05:38:30.966Z,7.53
2023-03-03T05:40:58.311Z,6.45
2023-03-03T05:43:28.271Z,7.68
2023-03-03T05:45:56.962Z,7.55
2023-03-03T05:48:24.409Z,7.10
2023-03-03T05:50:51.517Z,6.93
2023-03-03T05:53:21.205Z,8.00
2023-03-03T05:55:48.319Z,8.05
2023-03-03T05:58:15.328Z,7.60
2023-03-03T06:00:49.885Z,7.07
2023-03-03T06:03:18.016Z,7.38
2023-03-03T06:05:45.439Z,10.45
2023-03-03T06:08:12.882Z,30.73
2023-03-03T06:10:40.390Z,20.05
2023-03-03T06:13:10.320Z,16.40
2023-03-03T06:15:38.063Z,21.60
2023-03-03T06:18:07.985Z,18.83
2023-03-03T06:20:38.834Z,13.57
2023-03-03T06:23:09.214Z,9.25
2023-03-03T06:25:37.378Z,9.75
2023-03-03T06:28:04.520Z,8.68
2023-03-03T06:30:31.633Z,12.50
2023-03-03T06:32:59.117Z,11.45
2023-03-03T06:35:26.467Z,16.63
2023-03-03T06:37:56.573Z,10.45
2023-03-03T06:40:30.297Z,8.95
2023-03-03T06:42:57.832Z,8.23
2023-03-03T06:45:27.693Z,7.60
2023-03-03T06:47:58.196Z,7.40
2023-03-03T06:53:18.932Z,4.63
2023-03-03T06:55:46.895Z,5.38
2023-03-03T06:58:15.396Z,4.43
2023-03-03T07:01:02.790Z,4.72
2023-03-03T07:03:34.189Z,4.53
2023-03-03T07:06:16.190Z,5.00
2023-03-03T07:11:19.605Z,4.30
2023-03-03T07:13:50.452Z,4.07
2023-03-03T07:16:19.770Z,20.27
2023-03-03T07:18:47.721Z,9.90
2023-03-03T07:21:20.252Z,6.68
2023-03-03T07:23:55.130Z,4.50
2023-03-03T07:26:32.772Z,3.63
2023-03-03T07:29:27.520Z,3.38
2023-03-03T07:31:59.408Z,3.90
2023-03-03T07:34:40.118Z,4.90
2023-03-03T07:37:18.398Z,4.57
2023-03-03T07:39:47.421Z,4.18
2023-03-03T07:42:39.243Z,4.80
2023-03-03T07:45:34.602Z,2.58
2023-03-03T07:48:22.711Z,3.05
2023-03-03T07:50:50.019Z,3.35
2023-03-03T07:53:29.864Z,25.88
2023-03-03T07:55:57.269Z,32.22
2023-03-03T07:58:39.892Z,69.97
2023-03-03T08:01:35.273Z,22.38
2023-03-03T08:04:07.395Z,23.73
2023-03-03T08:06:54.558Z,12.88
2023-03-03T08:09:30.973Z,8.07
2023-03-03T08:12:07.163Z,6.15
2023-03-03T08:14:38.784Z,5.60
2023-03-03T08:17:22.503Z,4.40
2023-03-03T08:19:56.862Z,3.92
2023-03-03T08:22:35.693Z,4.22
2023-03-03T08:25:03.219Z,4.10
2023-03-03T08:27:30.824Z,4.18
2023-03-03T08:29:58.098Z,4.50
2023-03-03T08:32:25.135Z,4.30
2023-03-03T08:34:52.350Z,4.38
2023-03-03T08:37:19.950Z,4.53
2023-03-03T08:39:48.033Z,5.10
2023-03-03T08:42:16.353Z,3.97
2023-03-03T08:44:43.880Z,14.50
2023-03-03T08:47:11.445Z,19.80
2023-03-03T08:49:40.030Z,7.85
2023-03-03T08:52:07.567Z,5.72
2023-03-03T08:54:35.024Z,7.75
2023-03-03T08:57:02.642Z,6.95
2023-03-03T08:59:30.319Z,6.57
2023-03-03T09:01:57.511Z,5.80
2023-03-03T09:04:24.939Z,5.40
2023-03-03T09:06:53.611Z,5.75
2023-03-03T09:09:21.611Z,5.68
2023-03-03T09:11:49.227Z,6.47
2023-03-03T09:14:18.790Z,6.50
2023-03-03T09:16:51.758Z,5.35
2023-03-03T09:19:25.679Z,5.38
2023-03-03T09:21:58.659Z,5.07
2023-03-03T09:24:32.732Z,4.88
2023-03-03T09:27:00.181Z,4.78
2023-03-03T09:29:37.385Z,3.97
2023-03-03T09:32:32.225Z,5.18
2023-03-03T09:35:00.599Z,8.32
2023-03-03T09:37:34.280Z,10.20
2023-03-03T09:40:02.093Z,13.43
2023-03-03T09:42:47.753Z,5.68
2023-03-03T09:45:23.745Z,5.40
2023-03-03T09:48:41.905Z,5.55
2023-03-03T09:51:26.993Z,3.20
2023-03-03T09:54:05.216Z,3.15
2023-03-03T09:56:39.449Z,3.42
2023-03-03T09:59:18.676Z,2.95
2023-03-03T10:01:57.749Z,2.88
2023-03-03T10:04:56.379Z,2.60
2023-03-03T10:07:34.294Z,1.92
2023-03-03T10:10:04.424Z,2.17
2023-03-03T10:15:23.824Z,2.20
2023-03-03T10:17:53.492Z,4.55
2023-03-03T10:20:50.673Z,1.90
2023-03-03T10:23:58.848Z,2.05
2023-03-03T10:27:01.437Z,3.40
2023-03-03T10:30:12.211Z,2.05
2023-03-03T10:33:01.270Z,2.97
2023-03-03T10:36:07.059Z,2.92
2023-03-03T10:38:55.497Z,1.75
2023-03-03T10:41:34.999Z,2.22
2023-03-03T10:44:02.370Z,1.95
2023-03-03T10:46:39.521Z,1.65
2023-03-03T10:49:18.878Z,2.30
2023-03-03T10:51:46.306Z,1.63
2023-03-03T10:54:37.219Z,2.53
2023-03-03T10:57:04.652Z,3.95
2023-03-03T11:00:26.072Z,8.18
2023-03-03T11:03:07.678Z,10.75
2023-03-03T11:05:51.539Z,8.50
2023-03-03T11:08:30.415Z,10.18
2023-03-03T11:11:15.647Z,3.38
2023-03-03T11:13:49.142Z,33.70
2023-03-03T11:16:34.549Z,8.07
2023-03-03T11:19:02.463Z,7.20
2023-03-03T11:21:40.095Z,14.15
2023-03-03T11:24:16.601Z,11.25
2023-03-03T11:26:53.742Z,10.77
2023-03-03T11:29:25.635Z,16.30
2023-03-03T11:32:11.285Z,7.03
2023-03-03T11:35:08.608Z,13.48
2023-03-03T11:37:43.261Z,13.10
2023-03-03T11:40:32.637Z,8.63
2023-03-03T11:43:06.193Z,4.90
2023-03-03T11:45:58.766Z,12.90
2023-03-03T11:48:58.515Z,9.82
2023-03-03T11:51:38.139Z,8.20
2023-03-03T11:54:30.740Z,2.58
2023-03-03T11:57:11.370Z,3.67
2023-03-03T11:59:49.837Z,3.40
2023-03-03T12:02:44.123Z,10.75
2023-03-03T12:05:36.005Z,7.40
2023-03-03T12:08:21.428Z,2.65
2023-03-03T12:11:27.352Z,2.42
2023-03-03T12:14:13.507Z,2.88
2023-03-03T12:16:57.856Z,2.03
2023-03-03T12:19:41.042Z,2.70
2023-03-03T12:22:31.121Z,2.60
2023-03-03T12:25:23.135Z,1.63
2023-03-03T12:28:05.755Z,2.30
2023-03-03T12:30:59.550Z,3.65
2023-03-03T12:33:57.972Z,4.80
2023-03-03T12:36:37.229Z,15.50
2023-03-03T12:39:35.779Z,12.80
2023-03-03T12:42:36.456Z,5.15
2023-03-03T12:45:39.202Z,2.50
2023-03-03T12:48:30.436Z,3.03
2023-03-03T12:51:18.879Z,2.30
2023-03-03T12:54:14.031Z,2.00
2023-03-03T12:56:51.432Z,2.88
2023-03-03T13:00:10.974Z,2.50
2023-03-03T13:05:24.787Z,5.20
2023-03-03T13:08:31.762Z,4.03
2023-03-03T13:11:04.583Z,2.90
2023-03-03T13:14:18.655Z,2.90
2023-03-03T13:17:03.731Z,3.40
2023-03-03T13:19:53.057Z,3.08
2023-03-03T13:22:20.608Z,2.72
2023-03-03T13:25:31.621Z,1.25
2023-03-03T13:28:07.978Z,1.40
2023-03-03T13:30:44.896Z,1.85
2023-03-03T13:33:22.338Z,44.40
2023-03-03T13:35:59.684Z,3.70
2023-03-03T13:38:31.569Z,2.50
2023-03-03T13:41:07.346Z,2.30
2023-03-03T13:43:44.526Z,1.38
2023-03-03T13:46:32.850Z,1.58
2023-03-03T13:49:19.258Z,1.38
2023-03-03T13:52:00.265Z,1.38
2023-03-03T13:54:40.838Z,3.45
2023-03-03T13:57:31.486Z,2.13
2023-03-03T14:00:13.654Z,2.00
2023-03-03T14:05:45.004Z,5.00
2023-03-03T14:08:33.687Z,1.85
2023-03-03T14:11:24.037Z,2.17
2023-03-03T14:14:06.238Z,1.88
2023-03-03T14:16:57.565Z,1.80
2023-03-03T14:19:30.937Z,1.45
2023-03-03T14:22:39.777Z,1.52
2023-03-03T14:25:15.512Z,1.45
2023-03-03T14:27:48.588Z,1.45
2023-03-03T14:30:29.597Z,1.27
2023-03-03T14:33:09.430Z,1.60
2023-03-03T14:35:42.226Z,2.25
2023-03-03T14:38:13.538Z,2.30
2023-03-03T14:40:44.014Z,1.85
2023-03-03T14:43:33.681Z,3.47
2023-03-03T14:46:26.779Z,2.20
2023-03-03T14:49:02.395Z,3.47
2023-03-03T14:51:48.702Z,1.83
2023-03-03T14:54:47.860Z,1.52
2023-03-03T14:57:22.421Z,2.60
2023-03-03T15:00:06.735Z,3.00
2023-03-03T15:02:41.262Z,4.03
2023-03-03T15:05:17.496Z,2.55
2023-03-03T15:07:52.343Z,3.35
2023-03-03T15:10:45.121Z,4.72
2023-03-03T15:13:34.547Z,2.80
2023-03-03T15:16:25.876Z,3.55
2023-03-03T15:19:06.604Z,2.70
2023-03-03T15:21:44.053Z,5.10
2023-03-03T15:24:17.342Z,10.85
2023-03-03T15:27:28.937Z,8.48
2023-03-03T15:30:11.879Z,3.38
2023-03-03T15:33:07.302Z,3.70
2023-03-03T15:35:54.198Z,2.78
2023-03-03T15:38:27.202Z,3.05
2023-03-03T15:41:11.519Z,2.33
2023-03-03T15:43:39.146Z,3.33
2023-03-03T15:46:28.700Z,2.15
2023-03-03T15:49:03.831Z,1.40
2023-03-03T15:51:36.620Z,4.55
2023-03-03T15:54:29.798Z,3.63
2023-03-03T15:57:06.753Z,2.75
2023-03-03T15:59:57.469Z,4.45
2023-03-03T16:02:24.768Z,4.05
2023-03-03T16:05:07.894Z,5.13
2023-03-03T16:07:56.364Z,3.30
2023-03-03T16:10:54.600Z,4.40
2023-03-03T16:14:01.764Z,3.03
2023-03-03T16:16:50.674Z,2.95
2023-03-03T16:21:50.597Z,2.22
2023-03-03T16:24:26.849Z,3.92
2023-03-03T16:27:36.218Z,4.25
2023-03-03T16:30:47.882Z,2.85
2023-03-03T16:33:18.603Z,7.00
2023-03-03T16:36:18.348Z,4.40
2023-03-03T16:39:10.139Z,4.28
2023-03-03T16:41:46.137Z,2.00
2023-03-03T16:44:19.204Z,2.25
2023-03-03T16:46:49.498Z,3.00
2023-03-03T16:49:39.208Z,2.92
2023-03-03T16:52:15.353Z,3.78
2023-03-03T16:55:05.199Z,3.28
2023-03-03T16:57:37.973Z,3.60
2023-03-03T17:00:05.591Z,1.42
2023-03-03T17:02:53.056Z,2.35
2023-03-03T17:06:06.219Z,2.55
2023-03-03T17:08:56.744Z,2.35
2023-03-03T17:11:24.506Z,2.42
2023-03-03T17:14:04.359Z,2.88
2023-03-03T17:17:01.725Z,2.17
2023-03-03T17:19:57.339Z,2.20
2023-03-03T17:22:52.253Z,2.67
2023-03-03T17:25:48.772Z,2.58
2023-03-03T17:28:35.864Z,2.47
2023-03-03T17:31:05.916Z,3.08
2023-03-03T17:34:09.430Z,2.58
2023-03-03T17:37:08.061Z,1.92
2023-03-03T17:39:48.237Z,2.80
2023-03-03T17:42:19.389Z,3.10
2023-03-03T17:45:12.543Z,2.10
2023-03-03T17:47:51.942Z,2.13
2023-03-03T17:50:41.097Z,3.75
2023-03-03T17:53:09.452Z,2.67
2023-03-03T17:56:14.241Z,3.20
2023-03-03T17:59:10.324Z,3.70
2023-03-03T18:02:07.402Z,3.60
2023-03-03T18:04:46.671Z,3.80
2023-03-03T18:07:40.888Z,3.83
2023-03-03T18:11:00.258Z,3.50
2023-03-03T18:14:17.704Z,4.30
2023-03-03T18:19:43.589Z,23.58
2023-03-03T18:22:44.238Z,15.35
2023-03-03T18:25:56.308Z,10.48
2023-03-03T18:28:49.065Z,4.30
2023-03-03T18:31:28.214Z,4.63
2023-03-03T18:34:04.237Z,6.07
2023-03-03T18:36:38.153Z,6.68
2023-03-03T18:39:22.284Z,6.57
2023-03-03T18:42:09.821Z,5.97
2023-03-03T18:44:37.098Z,4.82
2023-03-03T18:47:04.136Z,3.58
2023-03-03T18:50:01.653Z,3.78
2023-03-03T18:52:30.808Z,2.67
2023-03-03T18:55:03.887Z,4.22
2023-03-03T18:57:31.004Z,3.50
2023-03-03T19:00:10.285Z,5.53
2023-03-03T19:02:46.435Z,4.95
2023-03-03T19:05:24.029Z,2.67
2023-03-03T19:08:22.463Z,2.30
2023-03-03T19:11:03.590Z,3.22
2023-03-03T19:13:39.116Z,2.70
2023-03-03T19:16:06.950Z,3.20
2023-03-03T19:19:01.019Z,4.63
2023-03-03T19:21:36.324Z,4.32
2023-03-03T19:24:12.658Z,4.22
2023-03-03T19:26:54.094Z,3.72
2023-03-03T19:29:47.735Z,4.78
2023-03-03T19:32:55.410Z,6.43
2023-03-03T19:38:29.087Z,5.00
2023-03-03T19:41:20.477Z,3.50
2023-03-03T19:44:32.265Z,4.63
2023-03-03T19:47:14.340Z,3.40
2023-03-03T19:49:50.954Z,3.22
2023-03-03T19:52:36.906Z,2.97
2023-03-03T19:55:19.248Z,3.00
2023-03-03T19:58:33.294Z,2.72
2023-03-03T20:01:24.328Z,3.33
2023-03-03T20:04:33.016Z,2.97
2023-03-03T20:10:31.912Z,3.97
2023-03-03T20:13:09.756Z,2.78
2023-03-03T20:16:22.133Z,2.53
2023-03-03T20:19:22.305Z,2.70
2023-03-03T20:22:09.455Z,2.65
2023-03-03T20:24:57.206Z,5.35
2023-03-03T20:27:33.501Z,3.25
2023-03-03T20:30:15.953Z,1.90
2023-03-03T20:32:43.547Z,3.50
2023-03-03T20:35:43.858Z,2.72
2023-03-03T20:38:35.624Z,3.15
2023-03-03T20:41:13.363Z,1.95
2023-03-03T20:44:09.423Z,2.97
2023-03-03T20:47:11.769Z,2.53
2023-03-03T20:50:10.112Z,2.83
2023-03-03T20:53:17.580Z,3.67
2023-03-03T20:56:02.998Z,2.92
2023-03-03T20:59:02.058Z,4.22
2023-03-03T21:01:38.916Z,2.50
2023-03-03T21:04:25.380Z,4.60
2023-03-03T21:06:59.227Z,3.38
2023-03-03T21:09:31.402Z,2.47
2023-03-03T21:12:00.699Z,2.22
2023-03-03T21:14:30.626Z,2.45
2023-03-03T21:17:11.594Z,2.33
2023-03-03T21:19:39.222Z,1.88
2023-03-03T21:22:06.976Z,2.80
2023-03-03T21:25:01.265Z,2.58
2023-03-03T21:27:33.569Z,2.28
2023-03-03T21:30:05.362Z,2.90
2023-03-03T21:32:51.486Z,2.83
2023-03-03T21:35:24.135Z,2.53
2023-03-03T21:37:54.114Z,2.88
2023-03-03T21:40:25.424Z,2.97
2023-03-03T21:42:54.853Z,2.40
2023-03-03T21:45:23.732Z,2.35
2023-03-03T21:47:53.501Z,1.70
2023-03-03T21:50:21.501Z,1.83
2023-03-03T21:52:49.596Z,1.90
2023-03-03T21:55:16.731Z,1.50
2023-03-03T21:57:44.244Z,1.98
2023-03-03T22:00:11.906Z,2.05
2023-03-03T22:02:38.991Z,1.92
2023-03-03T22:05:07.634Z,1.70
2023-03-03T22:07:35.205Z,2.05
2023-03-03T22:10:03.093Z,1.90
2023-03-03T22:12:30.222Z,1.85
2023-03-03T22:14:57.719Z,1.50
2023-03-03T22:17:25.696Z,1.75
2023-03-03T22:19:53.663Z,1.10
2023-03-03T22:22:23.220Z,1.70
2023-03-03T22:24:50.975Z,1.73
2023-03-03T22:27:19.315Z,1.25
2023-03-03T22:29:46.581Z,1.50
2023-03-03T22:32:14.153Z,2.10
2023-03-03T22:34:41.870Z,1.55
2023-03-03T22:37:09.229Z,1.65
2023-03-03T22:39:36.474Z,2.10
2023-03-03T22:42:03.945Z,1.20
2023-03-03T22:44:31.380Z,1.63
2023-03-03T22:46:58.637Z,1.23
2023-03-03T22:49:25.550Z,1.20
2023-03-03T22:51:59.359Z,1.10
2023-03-03T22:54:26.326Z,1.02
2023-03-03T22:56:53.610Z,1.10
2023-03-03T22:59:21.259Z,1.27
2023-03-03T23:01:48.877Z,14.52
2023-03-03T23:04:16.480Z,10.43
2023-03-03T23:06:45.757Z,1.85
2023-03-03T23:09:17.864Z,1.67
2023-03-03T23:11:45.778Z,1.73
2023-03-03T23:14:13.486Z,2.05
2023-03-03T23:16:41.365Z,1.55
2023-03-03T23:19:08.541Z,1.30
2023-03-03T23:21:36.495Z,1.27
2023-03-03T23:24:04.332Z,1.13
2023-03-03T23:26:31.705Z,1.15
2023-03-03T23:28:59.207Z,1.15
2023-03-03T23:31:27.720Z,1.10
2023-03-03T23:33:55.072Z,1.15
2023-03-03T23:36:22.496Z,1.35
2023-03-03T23:38:49.853Z,1.05
2023-03-03T23:41:17.533Z,1.02
2023-03-03T23:43:44.950Z,0.80
2023-03-03T23:46:15.849Z,1.15
2023-03-03T23:48:43.411Z,1.00
2023-03-03T23:51:10.521Z,0.80
2023-03-03T23:53:38.256Z,1.00
2023-03-03T23:56:15.260Z,0.73
2023-03-03T23:58:43.148Z,0.98
